createdAt,value
2023-05-10T00:02:47.833Z,93379.25
2023-05-10T00:05:51.274Z,93383.41
2023-05-10T00:08:55.656Z,93381.53
2023-05-10T00:11:59.937Z,93370.50
2023-05-10T00:15:04.720Z,93377.47
2023-05-10T00:18:08.672Z,93373.50
2023-05-10T00:21:12.779Z,93373.56
2023-05-10T00:24:16.300Z,93369.75
2023-05-10T00:27:19.474Z,93360.63
2023-05-10T00:30:23.266Z,93358.13
2023-05-10T00:33:27.305Z,93354.84
2023-05-10T00:36:31.343Z,93354.13
2023-05-10T00:39:35.127Z,93355.53
2023-05-10T00:42:39.376Z,93348.97
2023-05-10T00:45:43.898Z,93353.06
2023-05-10T00:48:48.697Z,93351.75
2023-05-10T00:51:52.328Z,93336.97
2023-05-10T00:54:57.918Z,93341.66
2023-05-10T00:58:01.686Z,93325.44
2023-05-10T01:01:07.202Z,93330.03
2023-05-10T01:04:12.589Z,93327.91
2023-05-10T01:07:16.585Z,93332.50
2023-05-10T01:10:20.133Z,93325.53
2023-05-10T01:13:38.898Z,93312.78
2023-05-10T01:16:43.952Z,93318.53
2023-05-10T01:19:47.523Z,93311.00
2023-05-10T01:23:10.191Z,93316.56
2023-05-10T01:26:45.602Z,93312.06
2023-05-10T01:30:15.663Z,93309.63
2023-05-10T01:33:32.925Z,93297.03
2023-05-10T01:36:56.266Z,93290.34
2023-05-10T01:40:24.646Z,93282.53
2023-05-10T01:43:38.975Z,93283.13
2023-05-10T01:46:43.552Z,93270.94
2023-05-10T01:49:53.644Z,93270.75
2023-05-10T01:53:00.230Z,93267.00
2023-05-10T01:56:05.623Z,93263.28
2023-05-10T01:59:17.010Z,93252.38
2023-05-10T02:02:22.964Z,93248.97
2023-05-10T02:05:28.884Z,93247.00
2023-05-10T02:08:34.712Z,93239.81
2023-05-10T02:11:41.115Z,93244.06
2023-05-10T02:14:44.927Z,93236.59
2023-05-10T02:17:49.901Z,93242.50
2023-05-10T02:20:55.470Z,93238.59
2023-05-10T02:24:00.192Z,93232.28
2023-05-10T02:27:06.445Z,93220.22
2023-05-10T02:30:12.116Z,93231.69
2023-05-10T02:33:16.626Z,93227.25
2023-05-10T02:36:22.190Z,93205.09
2023-05-10T02:39:28.000Z,93213.41
2023-05-10T02:42:35.228Z,93203.47
2023-05-10T02:45:41.418Z,93209.91
2023-05-10T02:48:46.276Z,93199.19
2023-05-10T02:51:57.016Z,93200.44
2023-05-10T02:55:05.073Z,93189.59
2023-05-10T02:58:08.826Z,93189.06
2023-05-10T03:01:12.960Z,93193.03
2023-05-10T03:04:16.740Z,93179.28
2023-05-10T03:07:23.116Z,93185.31
2023-05-10T03:10:31.118Z,93183.72
2023-05-10T03:13:45.666Z,93188.84
2023-05-10T03:16:58.415Z,93169.91
2023-05-10T03:20:11.744Z,93168.91
2023-05-10T03:23:25.898Z,93163.91
2023-05-10T03:26:31.443Z,93163.09
2023-05-10T03:29:50.304Z,93147.56
2023-05-10T03:32:54.523Z,93150.16
2023-05-10T03:35:58.631Z,93143.13
2023-05-10T03:39:02.646Z,93139.56
2023-05-10T03:42:05.817Z,93135.56
2023-05-10T03:45:10.447Z,93125.16
2023-05-10T03:48:15.282Z,93111.81
2023-05-10T03:51:19.901Z,93110.38
2023-05-10T03:54:23.804Z,93109.91
2023-05-10T03:57:27.966Z,93106.47
2023-05-10T04:00:31.714Z,93095.28
2023-05-10T04:03:38.274Z,93083.47
2023-05-10T04:06:42.164Z,93085.44
2023-05-10T04:09:46.387Z,93080.63
2023-05-10T04:12:50.091Z,93076.97
2023-05-10T04:15:54.232Z,93072.16
2023-05-10T04:18:58.100Z,93062.91
2023-05-10T04:22:02.149Z,93060.53
2023-05-10T04:25:06.383Z,93057.31
2023-05-10T04:28:11.048Z,93048.19
2023-05-10T04:31:14.795Z,93036.91
2023-05-10T04:34:18.423Z,93038.34
2023-05-10T04:37:23.012Z,93025.88
2023-05-10T04:40:27.860Z,93027.22
2023-05-10T04:43:31.536Z,93025.91
2023-05-10T04:46:35.698Z,93011.94
2023-05-10T04:49:39.303Z,93014.47
2023-05-10T04:52:43.012Z,93004.56
2023-05-10T04:55:48.266Z,93000.22
2023-05-10T04:58:52.441Z,92995.19
2023-05-10T05:01:56.220Z,92991.88
2023-05-10T05:05:00.581Z,92973.00
2023-05-10T05:08:04.444Z,92974.63
2023-05-10T05:11:08.148Z,92963.69
2023-05-10T05:14:11.400Z,92971.09
2023-05-10T05:17:15.447Z,92959.75
2023-05-10T05:20:20.505Z,92953.75
2023-05-10T05:23:26.647Z,92941.63
2023-05-10T05:26:30.347Z,92945.78
2023-05-10T05:29:34.709Z,92947.28
2023-05-10T05:32:38.346Z,92930.78
2023-05-10T05:35:42.078Z,92939.03
2023-05-10T05:38:45.691Z,92920.81
2023-05-10T05:41:50.090Z,92924.97
2023-05-10T05:44:53.706Z,92913.97
2023-05-10T05:47:58.233Z,92915.31
2023-05-10T05:51:01.957Z,92907.50
2023-05-10T05:54:10.696Z,92903.41
2023-05-10T05:57:15.704Z,92909.13
2023-05-10T06:00:19.023Z,92898.53
2023-05-10T06:03:22.460Z,92895.69
2023-05-10T06:06:26.043Z,92893.16
2023-05-10T06:09:29.017Z,92879.94
2023-05-10T06:12:32.966Z,92886.28
2023-05-10T06:15:36.749Z,92883.41
2023-05-10T06:18:41.354Z,92887.06
2023-05-10T06:21:44.601Z,92870.72
2023-05-10T06:24:48.290Z,92874.41
2023-05-10T06:27:53.869Z,92876.00
2023-05-10T06:30:58.269Z,92849.63
2023-05-10T06:34:02.171Z,92850.25
2023-05-10T06:37:06.090Z,92836.19
2023-05-10T06:40:11.144Z,92845.47
2023-05-10T06:43:14.917Z,92843.53
2023-05-10T06:46:18.635Z,92839.44
2023-05-10T06:49:22.107Z,92831.38
2023-05-10T06:52:25.919Z,92836.16
2023-05-10T06:55:29.823Z,92830.75
2023-05-10T06:58:34.185Z,92828.84
2023-05-10T07:01:38.257Z,92832.50
2023-05-10T07:04:42.041Z,92837.84
2023-05-10T07:07:46.113Z,92830.94
2023-05-10T07:10:49.773Z,92828.00
2023-05-10T07:13:53.785Z,92830.06
2023-05-10T07:16:57.468Z,92830.50
2023-05-10T07:20:02.293Z,92833.63
2023-05-10T07:23:06.201Z,92838.56
2023-05-10T07:26:11.000Z,92838.09
2023-05-10T07:29:14.049Z,92866.97
2023-05-10T07:32:17.882Z,92823.22
2023-05-10T07:35:21.530Z,92807.91
2023-05-10T07:38:25.616Z,92811.84
2023-05-10T07:41:29.410Z,92819.56
2023-05-10T07:44:33.437Z,92823.59
2023-05-10T07:47:36.683Z,92821.91
2023-05-10T07:50:40.659Z,92825.41
2023-05-10T07:53:44.085Z,92810.16
2023-05-10T07:56:49.120Z,92809.47
2023-05-10T07:59:52.766Z,92800.72
2023-05-10T08:02:56.877Z,92817.06
2023-05-10T08:06:01.671Z,92816.69
2023-05-10T08:09:05.451Z,92802.56
2023-05-10T08:12:12.002Z,92817.16
2023-05-10T08:15:15.696Z,92811.47
2023-05-10T08:18:21.741Z,92814.81
2023-05-10T08:21:25.459Z,92800.44
2023-05-10T08:24:28.663Z,92799.28
2023-05-10T08:27:32.405Z,92805.78
2023-05-10T08:30:36.112Z,92807.75
2023-05-10T08:33:39.645Z,92806.09
2023-05-10T08:36:43.642Z,92791.47
2023-05-10T08:39:49.925Z,92797.63
2023-05-10T08:42:59.264Z,92801.34
2023-05-10T08:46:06.921Z,92795.38
2023-05-10T08:49:14.806Z,92796.91
2023-05-10T08:52:20.317Z,92788.88
2023-05-10T08:55:25.617Z,92789.63
2023-05-10T08:58:30.027Z,92787.44
2023-05-10T09:01:34.397Z,92787.25
2023-05-10T09:04:38.581Z,92793.03
2023-05-10T09:07:42.409Z,92786.34
2023-05-10T09:10:49.078Z,92790.91
2023-05-10T09:13:54.465Z,92786.84
2023-05-10T09:16:58.882Z,92784.63
2023-05-10T09:20:04.527Z,92792.09
2023-05-10T09:23:08.845Z,92791.03
2023-05-10T09:26:12.390Z,92792.22
2023-05-10T09:29:17.642Z,92786.09
2023-05-10T09:32:21.802Z,92783.81
2023-05-10T09:35:29.660Z,92789.72
2023-05-10T09:38:50.650Z,92807.81
2023-05-10T09:41:55.060Z,92809.00
2023-05-10T09:45:03.895Z,92806.56
2023-05-10T09:48:08.288Z,92804.03
2023-05-10T09:51:13.588Z,92816.38
2023-05-10T09:54:20.101Z,92826.13
2023-05-10T09:57:25.230Z,92827.53
2023-05-10T10:00:30.982Z,92833.97
2023-05-10T10:03:34.696Z,92825.75
2023-05-10T10:06:39.990Z,92828.28
2023-05-10T10:09:51.896Z,92830.56
2023-05-10T10:12:57.275Z,92812.22
2023-05-10T10:16:01.062Z,92823.16
2023-05-10T10:19:05.225Z,92832.84
2023-05-10T10:22:09.117Z,92833.00
2023-05-10T10:25:15.151Z,92822.66
2023-05-10T10:28:47.030Z,92824.56
2023-05-10T10:31:52.728Z,92820.06
2023-05-10T10:34:57.727Z,92832.28
2023-05-10T10:38:02.587Z,92839.00
2023-05-10T10:41:28.604Z,92833.72
2023-05-10T10:44:40.908Z,92821.22
2023-05-10T10:47:45.467Z,92840.59
2023-05-10T10:50:50.681Z,92828.09
2023-05-10T10:53:55.699Z,92831.72
2023-05-10T10:57:28.425Z,92844.16
2023-05-10T11:00:32.600Z,92855.22
2023-05-10T11:03:36.137Z,92837.88
2023-05-10T11:06:41.728Z,92850.31
2023-05-10T11:09:44.790Z,92871.09
2023-05-10T11:13:04.590Z,92846.03
2023-05-10T11:16:18.792Z,92851.47
2023-05-10T11:19:29.960Z,92850.94
2023-05-10T11:22:53.033Z,92847.50
2023-05-10T11:25:56.923Z,92856.97
2023-05-10T11:29:03.958Z,92856.72
2023-05-10T11:32:09.635Z,92850.72
2023-05-10T11:35:14.304Z,92847.72
2023-05-10T11:38:17.583Z,92853.41
2023-05-10T11:41:25.530Z,92854.88
2023-05-10T11:44:34.705Z,92857.69
2023-05-10T11:47:40.802Z,92859.47
2023-05-10T11:50:47.648Z,92850.75
2023-05-10T11:53:55.306Z,92864.84
2023-05-10T11:56:58.994Z,92842.78
2023-05-10T12:00:05.522Z,92854.78
2023-05-10T12:03:12.250Z,92860.34
2023-05-10T12:06:17.973Z,92856.53
2023-05-10T12:09:35.484Z,92862.34
2023-05-10T12:12:49.932Z,92869.88
2023-05-10T12:15:53.468Z,92864.53
2023-05-10T12:19:01.323Z,92876.28
2023-05-10T12:22:07.257Z,92874.94
2023-05-10T12:25:11.750Z,92871.75
2023-05-10T12:28:14.836Z,92874.59
2023-05-10T12:31:18.996Z,92869.09
2023-05-10T12:34:37.641Z,92869.28
2023-05-10T12:37:40.883Z,92876.94
2023-05-10T12:40:43.913Z,92885.00
2023-05-10T12:43:48.380Z,92875.31
2023-05-10T12:46:52.121Z,92873.41
2023-05-10T12:49:56.219Z,92877.44
2023-05-10T12:52:59.956Z,92880.75
2023-05-10T12:56:03.692Z,92883.63
2023-05-10T12:59:06.767Z,92887.81
2023-05-10T13:02:11.949Z,92891.81
2023-05-10T13:05:14.975Z,92894.66
2023-05-10T13:08:18.413Z,92900.84
2023-05-10T13:11:23.128Z,92902.38
2023-05-10T13:14:27.243Z,92887.56
2023-05-10T13:17:32.217Z,92899.88
2023-05-10T13:20:37.342Z,92885.41
2023-05-10T13:23:42.292Z,92882.69
2023-05-10T13:26:46.165Z,92890.59
2023-05-10T13:29:49.270Z,92901.97
2023-05-10T13:32:52.544Z,92900.91
2023-05-10T13:35:55.964Z,92904.25
2023-05-10T13:39:00.085Z,92894.81
2023-05-10T13:42:04.593Z,92896.97
2023-05-10T13:45:08.445Z,92897.81
2023-05-10T13:48:11.569Z,92900.75
2023-05-10T13:51:15.528Z,92891.94
2023-05-10T13:54:21.345Z,92877.53
2023-05-10T13:57:25.492Z,92887.56
2023-05-10T14:00:28.794Z,92899.09
2023-05-10T14:03:33.332Z,92891.78
2023-05-10T14:06:38.319Z,92879.72
2023-05-10T14:09:41.726Z,92888.41
2023-05-10T14:12:44.824Z,92889.16
2023-05-10T14:15:48.221Z,92889.88
2023-05-10T14:18:51.270Z,92892.59
2023-05-10T14:21:54.370Z,92881.44
2023-05-10T14:24:57.529Z,92886.75
2023-05-10T14:28:01.135Z,92873.56
2023-05-10T14:31:04.287Z,92880.44
2023-05-10T14:34:07.743Z,92875.72
2023-05-10T14:37:13.342Z,92872.34
2023-05-10T14:40:18.682Z,92871.78
2023-05-10T14:43:22.231Z,92865.22
2023-05-10T14:46:26.037Z,92874.94
2023-05-10T14:49:30.786Z,92885.91
2023-05-10T14:52:34.584Z,92882.63
2023-05-10T14:55:38.867Z,92858.81
2023-05-10T14:58:42.314Z,92872.31
2023-05-10T15:01:46.677Z,92868.44
2023-05-10T15:04:50.289Z,92872.44
2023-05-10T15:07:54.559Z,92865.31
2023-05-10T15:10:57.983Z,92867.38
2023-05-10T15:14:03.411Z,92862.22
2023-05-10T15:17:09.048Z,92867.91
2023-05-10T15:20:12.375Z,92858.44
2023-05-10T15:23:15.538Z,92856.47
2023-05-10T15:26:18.692Z,92850.69
2023-05-10T15:29:22.546Z,92853.47
2023-05-10T15:32:25.793Z,92848.72
2023-05-10T15:35:29.775Z,92824.38
2023-05-10T15:38:33.132Z,92830.81
2023-05-10T15:41:37.664Z,92819.84
2023-05-10T15:44:41.839Z,92816.66
2023-05-10T15:47:45.648Z,92819.28
2023-05-10T15:50:49.196Z,92807.78
2023-05-10T15:54:05.897Z,92815.88
2023-05-10T15:57:10.637Z,92811.81
2023-05-10T16:00:14.383Z,92811.22
2023-05-10T16:03:17.625Z,92801.19
2023-05-10T16:06:21.372Z,92804.59
2023-05-10T16:09:25.261Z,92799.88
2023-05-10T16:12:29.336Z,92794.88
2023-05-10T16:15:32.790Z,92800.50
2023-05-10T16:18:36.642Z,92794.53
2023-05-10T16:21:39.854Z,92802.06
2023-05-10T16:24:43.019Z,92799.56
2023-05-10T16:27:46.191Z,92785.59
2023-05-10T16:30:49.803Z,92779.84
2023-05-10T16:33:53.246Z,92776.13
2023-05-10T16:36:56.326Z,92778.22
2023-05-10T16:40:00.438Z,92772.78
2023-05-10T16:43:04.174Z,92774.13
2023-05-10T16:46:16.685Z,92761.94
2023-05-10T16:49:19.853Z,92758.63
2023-05-10T16:52:24.679Z,92747.69
2023-05-10T16:55:28.295Z,92751.88
2023-05-10T16:58:32.391Z,92746.44
2023-05-10T17:01:36.133Z,92750.31
2023-05-10T17:04:39.522Z,92754.44
2023-05-10T17:07:43.266Z,92748.22
2023-05-10T17:10:47.436Z,92749.56
2023-05-10T17:13:50.761Z,92744.34
2023-05-10T17:16:55.863Z,92746.34
2023-05-10T17:20:02.117Z,92737.72
2023-05-10T17:23:05.915Z,92739.13
2023-05-10T17:26:08.991Z,92742.19
2023-05-10T17:29:12.797Z,92753.91
2023-05-10T17:32:16.754Z,92755.19
2023-05-10T17:35:22.092Z,92758.41
2023-05-10T17:38:26.206Z,92757.50
2023-05-10T17:41:30.653Z,92753.47
2023-05-10T17:44:33.689Z,92745.34
2023-05-10T17:47:36.786Z,92739.16
2023-05-10T17:50:44.331Z,92748.56
2023-05-10T17:53:47.441Z,92743.09
2023-05-10T17:56:50.804Z,92744.94
2023-05-10T17:59:53.868Z,92745.50
2023-05-10T18:02:57.870Z,92741.59
2023-05-10T18:06:01.050Z,92739.34
2023-05-10T18:09:08.051Z,92733.88
2023-05-10T18:12:11.668Z,92741.94
2023-05-10T18:15:14.704Z,92758.47
2023-05-10T18:18:18.071Z,92762.59
2023-05-10T18:21:21.112Z,92764.53
2023-05-10T18:24:37.494Z,92758.66
2023-05-10T18:27:41.826Z,92770.38
2023-05-10T18:30:46.369Z,92762.94
2023-05-10T18:33:49.427Z,92762.56
2023-05-10T18:36:53.049Z,92761.44
2023-05-10T18:39:56.262Z,92759.75
2023-05-10T18:43:00.355Z,92765.41
2023-05-10T18:46:03.274Z,92758.75
2023-05-10T18:49:09.236Z,92758.66
2023-05-10T18:52:12.423Z,92750.47
2023-05-10T18:55:16.333Z,92746.41
2023-05-10T18:58:21.096Z,92749.28
2023-05-10T19:01:24.184Z,92755.19
2023-05-10T19:04:27.486Z,92753.09
2023-05-10T19:07:30.601Z,92743.25
2023-05-10T19:10:34.065Z,92741.28
2023-05-10T19:13:37.160Z,92733.97
2023-05-10T19:16:42.533Z,92741.44
2023-05-10T19:19:45.931Z,92737.44
2023-05-10T19:23:08.626Z,92740.44
2023-05-10T19:26:13.806Z,92740.78
2023-05-10T19:29:18.072Z,92739.56
2023-05-10T19:32:21.479Z,92762.56
2023-05-10T19:35:25.381Z,92752.06
2023-05-10T19:38:28.304Z,92750.25
2023-05-10T19:41:31.693Z,92751.94
2023-05-10T19:44:34.746Z,92749.63
2023-05-10T19:47:39.296Z,92745.59
2023-05-10T19:50:42.373Z,92746.94
2023-05-10T19:53:46.402Z,92748.28
2023-05-10T19:56:49.517Z,92744.81
2023-05-10T19:59:52.773Z,92738.00
2023-05-10T20:02:56.701Z,92741.28
2023-05-10T20:05:59.843Z,92742.72
2023-05-10T20:09:03.203Z,92736.66
2023-05-10T20:12:06.135Z,92733.97
2023-05-10T20:15:09.445Z,92728.56
2023-05-10T20:18:12.795Z,92724.53
2023-05-10T20:21:15.883Z,92722.50
2023-05-10T20:24:19.984Z,92718.41
2023-05-10T20:27:24.174Z,92724.47
2023-05-10T20:30:27.558Z,92724.44
2023-05-10T20:33:31.378Z,92720.50
2023-05-10T20:36:35.139Z,92715.09
2023-05-10T20:39:38.237Z,92710.41
2023-05-10T20:42:41.565Z,92711.81
2023-05-10T20:45:44.952Z,92705.81
2023-05-10T20:48:48.023Z,92709.28
2023-05-10T20:51:51.814Z,92693.16
2023-05-10T20:54:55.693Z,92679.03
2023-05-10T20:57:58.929Z,92684.41
2023-05-10T21:01:02.885Z,92675.78
2023-05-10T21:04:06.280Z,92677.75
2023-05-10T21:07:09.436Z,92690.47
2023-05-10T21:10:13.282Z,92703.22
2023-05-10T21:13:16.436Z,92704.69
2023-05-10T21:16:19.846Z,92715.91
2023-05-10T21:19:23.416Z,92710.59
2023-05-10T21:22:27.462Z,92732.22
2023-05-10T21:25:31.284Z,92726.84
2023-05-10T21:28:35.369Z,92737.56
2023-05-10T21:31:38.347Z,92738.88
2023-05-10T21:34:41.362Z,92750.31
2023-05-10T21:37:45.072Z,92746.25
2023-05-10T21:40:48.710Z,92744.19
2023-05-10T21:43:52.518Z,92732.84
2023-05-10T21:46:55.715Z,92745.50
2023-05-10T21:49:58.756Z,92733.38
2023-05-10T21:53:03.180Z,92725.97
2023-05-10T21:56:07.828Z,92717.91
2023-05-10T21:59:11.219Z,92698.44
2023-05-10T22:02:14.451Z,92703.88
2023-05-10T22:05:17.532Z,92701.19
2023-05-10T22:08:20.604Z,92702.59
2023-05-10T22:11:24.085Z,92711.22
2023-05-10T22:14:27.855Z,92712.59
2023-05-10T22:17:31.433Z,92709.91
2023-05-10T22:20:34.620Z,92709.84
2023-05-10T22:23:37.999Z,92726.63
2023-05-10T22:26:41.751Z,92726.53
2023-05-10T22:29:46.995Z,92725.75
2023-05-10T22:32:50.717Z,92741.72
2023-05-10T22:35:54.345Z,92742.34
2023-05-10T22:38:58.233Z,92750.34
2023-05-10T22:42:01.440Z,92746.97
2023-05-10T22:45:06.375Z,92751.63
2023-05-10T22:48:09.931Z,92745.50
2023-05-10T22:51:13.022Z,92756.22
2023-05-10T22:54:16.791Z,92758.28
2023-05-10T22:57:20.662Z,92749.44
2023-05-10T23:00:24.771Z,92750.63
2023-05-10T23:03:28.624Z,92751.78
2023-05-10T23:06:32.145Z,92750.31
2023-05-10T23:09:35.580Z,92752.91
2023-05-10T23:12:38.877Z,92753.56
2023-05-10T23:15:44.028Z,92748.84
2023-05-10T23:18:47.895Z,92753.53
2023-05-10T23:21:51.106Z,92748.19
2023-05-10T23:24:54.339Z,92758.88
2023-05-10T23:27:57.598Z,92758.06
2023-05-10T23:31:00.708Z,92766.16
2023-05-10T23:34:04.104Z,92759.53
2023-05-10T23:37:07.379Z,92770.41
2023-05-10T23:40:11.316Z,92754.22
2023-05-10T23:43:17.037Z,92762.28
2023-05-10T23:46:20.128Z,92774.22
2023-05-10T23:49:23.610Z,92772.75
2023-05-10T23:52:26.732Z,92767.22
2023-05-10T23:55:30.062Z,92771.94
2023-05-10T23:58:33.073Z,92778.53
